sensor_id;sensor_type;location;lat;lon;timestamp;P1;durP1;ratioP1;P2;durP2;ratioP2
17197;SDS011;8715;51.010;6.812;2023-04-24T00:00:08;932.30;;;860.97;;
17197;SDS011;8715;51.010;6.812;2023-04-24T00:02:37;928.78;;;857.60;;
17197;SDS011;8715;51.010;6.812;2023-04-24T00:05:04;940.80;;;869.03;;
17197;SDS011;8715;51.010;6.812;2023-04-24T00:07:29;933.40;;;861.17;;
17197;SDS011;8715;51.010;6.812;2023-04-24T00:09:55;931.85;;;859.78;;
17197;SDS011;8715;51.010;6.812;2023-04-24T00:12:20;927.10;;;856.07;;
17197;SDS011;8715;51.010;6.812;2023-04-24T00:14:45;929.37;;;857.77;;
17197;SDS011;8715;51.010;6.812;2023-04-24T00:17:10;931.70;;;859.63;;
17197;SDS011;8715;51.010;6.812;2023-04-24T00:19:35;935.40;;;863.27;;
17197;SDS011;8715;51.010;6.812;2023-04-24T00:22:01;931.10;;;859.77;;
17197;SDS011;8715;51.010;6.812;2023-04-24T00:24:27;934.08;;;862.10;;
17197;SDS011;8715;51.010;6.812;2023-04-24T00:26:52;928.60;;;857.30;;
17197;SDS011;8715;51.010;6.812;2023-04-24T00:29:17;929.97;;;858.03;;
17197;SDS011;8715;51.010;6.812;2023-04-24T00:31:43;931.47;;;859.37;;
17197;SDS011;8715;51.010;6.812;2023-04-24T00:34:08;936.17;;;864.00;;
17197;SDS011;8715;51.010;6.812;2023-04-24T00:36:33;944.77;;;872.43;;
17197;SDS011;8715;51.010;6.812;2023-04-24T00:38:58;930.93;;;858.73;;
17197;SDS011;8715;51.010;6.812;2023-04-24T00:41:24;930.73;;;858.83;;
17197;SDS011;8715;51.010;6.812;2023-04-24T00:43:50;947.67;;;874.92;;
17197;SDS011;8715;51.010;6.812;2023-04-24T00:46:15;933.75;;;861.40;;
17197;SDS011;8715;51.010;6.812;2023-04-24T00:48:41;933.78;;;861.15;;
17197;SDS011;8715;51.010;6.812;2023-04-24T00:51:06;929.70;;;857.97;;
17197;SDS011;8715;51.010;6.812;2023-04-24T00:53:32;928.60;;;856.73;;
17197;SDS011;8715;51.010;6.812;2023-04-24T00:55:57;931.20;;;859.67;;
17197;SDS011;8715;51.010;6.812;2023-04-24T00:58:23;931.20;;;859.80;;
17197;SDS011;8715;51.010;6.812;2023-04-24T01:00:48;933.10;;;861.40;;
17197;SDS011;8715;51.010;6.812;2023-04-24T01:03:14;936.65;;;864.55;;
17197;SDS011;8715;51.010;6.812;2023-04-24T01:05:39;930.60;;;858.50;;
17197;SDS011;8715;51.010;6.812;2023-04-24T01:08:04;935.37;;;863.13;;
17197;SDS011;8715;51.010;6.812;2023-04-24T01:10:30;927.85;;;856.90;;
17197;SDS011;8715;51.010;6.812;2023-04-24T01:12:55;944.65;;;872.50;;
17197;SDS011;8715;51.010;6.812;2023-04-24T01:15:21;925.97;;;855.38;;
17197;SDS011;8715;51.010;6.812;2023-04-24T01:17:46;933.53;;;862.20;;
17197;SDS011;8715;51.010;6.812;2023-04-24T01:20:12;930.97;;;860.07;;
17197;SDS011;8715;51.010;6.812;2023-04-24T01:22:37;925.42;;;855.10;;
17197;SDS011;8715;51.010;6.812;2023-04-24T01:25:02;939.60;;;868.37;;
17197;SDS011;8715;51.010;6.812;2023-04-24T01:27:28;934.17;;;862.35;;
17197;SDS011;8715;51.010;6.812;2023-04-24T01:29:53;927.73;;;856.53;;
17197;SDS011;8715;51.010;6.812;2023-04-24T01:32:19;926.20;;;855.85;;
17197;SDS011;8715;51.010;6.812;2023-04-24T01:34:45;923.40;;;853.00;;
17197;SDS011;8715;51.010;6.812;2023-04-24T01:37:10;925.30;;;855.13;;
17197;SDS011;8715;51.010;6.812;2023-04-24T01:39:35;927.10;;;857.23;;
17197;SDS011;8715;51.010;6.812;2023-04-24T01:42:01;936.35;;;866.85;;
17197;SDS011;8715;51.010;6.812;2023-04-24T01:44:27;934.92;;;865.85;;
17197;SDS011;8715;51.010;6.812;2023-04-24T01:47:12;922.92;;;853.90;;
17197;SDS011;8715;51.010;6.812;2023-04-24T01:49:39;927.75;;;857.97;;
17197;SDS011;8715;51.010;6.812;2023-04-24T01:52:04;935.95;;;867.10;;
17197;SDS011;8715;51.010;6.812;2023-04-24T01:54:30;919.72;;;851.65;;
17197;SDS011;8715;51.010;6.812;2023-04-24T01:56:55;917.65;;;849.97;;
17197;SDS011;8715;51.010;6.812;2023-04-24T01:59:20;916.40;;;848.67;;
17197;SDS011;8715;51.010;6.812;2023-04-24T02:01:46;919.42;;;851.42;;
17197;SDS011;8715;51.010;6.812;2023-04-24T02:04:11;926.37;;;858.90;;
17197;SDS011;8715;51.010;6.812;2023-04-24T02:06:37;909.80;;;843.80;;
17197;SDS011;8715;51.010;6.812;2023-04-24T02:09:02;912.70;;;845.57;;
17197;SDS011;8715;51.010;6.812;2023-04-24T02:11:28;917.72;;;850.40;;
17197;SDS011;8715;51.010;6.812;2023-04-24T02:13:53;909.90;;;843.10;;
17197;SDS011;8715;51.010;6.812;2023-04-24T02:16:18;911.50;;;845.10;;
17197;SDS011;8715;51.010;6.812;2023-04-24T02:18:43;907.50;;;841.77;;
17197;SDS011;8715;51.010;6.812;2023-04-24T02:21:09;908.87;;;842.57;;
17197;SDS011;8715;51.010;6.812;2023-04-24T02:23:35;928.80;;;861.53;;
17197;SDS011;8715;51.010;6.812;2023-04-24T02:26:00;927.10;;;860.33;;
17197;SDS011;8715;51.010;6.812;2023-04-24T02:28:25;907.50;;;841.50;;
17197;SDS011;8715;51.010;6.812;2023-04-24T02:30:50;914.03;;;847.40;;
17197;SDS011;8715;51.010;6.812;2023-04-24T02:33:16;913.90;;;847.63;;
17197;SDS011;8715;51.010;6.812;2023-04-24T02:35:41;929.90;;;862.60;;
17197;SDS011;8715;51.010;6.812;2023-04-24T02:38:06;912.17;;;844.87;;
17197;SDS011;8715;51.010;6.812;2023-04-24T02:40:31;932.10;;;863.87;;
17197;SDS011;8715;51.010;6.812;2023-04-24T02:42:57;907.43;;;840.77;;
17197;SDS011;8715;51.010;6.812;2023-04-24T02:45:22;917.07;;;850.07;;
17197;SDS011;8715;51.010;6.812;2023-04-24T02:47:47;908.93;;;842.43;;
17197;SDS011;8715;51.010;6.812;2023-04-24T02:50:12;912.97;;;845.80;;
17197;SDS011;8715;51.010;6.812;2023-04-24T02:52:37;909.83;;;842.97;;
17197;SDS011;8715;51.010;6.812;2023-04-24T02:55:03;915.53;;;848.73;;
17197;SDS011;8715;51.010;6.812;2023-04-24T02:57:28;923.27;;;855.47;;
17197;SDS011;8715;51.010;6.812;2023-04-24T02:59:53;912.60;;;844.63;;
17197;SDS011;8715;51.010;6.812;2023-04-24T03:02:18;920.50;;;852.37;;
17197;SDS011;8715;51.010;6.812;2023-04-24T03:04:45;919.28;;;851.45;;
17197;SDS011;8715;51.010;6.812;2023-04-24T03:07:10;918.17;;;849.93;;
17197;SDS011;8715;51.010;6.812;2023-04-24T03:09:35;931.53;;;863.03;;
17197;SDS011;8715;51.010;6.812;2023-04-24T03:12:00;933.00;;;864.57;;
17197;SDS011;8715;51.010;6.812;2023-04-24T03:14:26;914.97;;;847.37;;
17197;SDS011;8715;51.010;6.812;2023-04-24T03:16:51;911.23;;;844.77;;
17197;SDS011;8715;51.010;6.812;2023-04-24T03:19:16;914.13;;;847.17;;
17197;SDS011;8715;51.010;6.812;2023-04-24T03:21:41;919.10;;;851.80;;
17197;SDS011;8715;51.010;6.812;2023-04-24T03:24:07;915.83;;;848.23;;
17197;SDS011;8715;51.010;6.812;2023-04-24T03:26:32;910.30;;;843.50;;
17197;SDS011;8715;51.010;6.812;2023-04-24T03:28:57;908.50;;;842.07;;
17197;SDS011;8715;51.010;6.812;2023-04-24T03:31:23;911.90;;;845.43;;
17197;SDS011;8715;51.010;6.812;2023-04-24T03:33:48;910.97;;;844.13;;
17197;SDS011;8715;51.010;6.812;2023-04-24T03:36:13;912.47;;;845.53;;
17197;SDS011;8715;51.010;6.812;2023-04-24T03:38:38;910.93;;;844.67;;
17197;SDS011;8715;51.010;6.812;2023-04-24T03:41:04;911.70;;;845.57;;
17197;SDS011;8715;51.010;6.812;2023-04-24T03:43:29;914.33;;;847.75;;
17197;SDS011;8715;51.010;6.812;2023-04-24T03:45:54;911.33;;;844.83;;
17197;SDS011;8715;51.010;6.812;2023-04-24T03:48:19;910.70;;;844.27;;
17197;SDS011;8715;51.010;6.812;2023-04-24T03:50:44;920.70;;;853.97;;
17197;SDS011;8715;51.010;6.812;2023-04-24T03:53:10;911.83;;;845.33;;
17197;SDS011;8715;51.010;6.812;2023-04-24T03:55:35;927.40;;;860.50;;
17197;SDS011;8715;51.010;6.812;2023-04-24T03:58:00;913.85;;;847.58;;
17197;SDS011;8715;51.010;6.812;2023-04-24T04:00:26;912.00;;;845.83;;
17197;SDS011;8715;51.010;6.812;2023-04-24T04:02:51;927.07;;;860.17;;
17197;SDS011;8715;51.010;6.812;2023-04-24T04:05:16;912.67;;;845.93;;
17197;SDS011;8715;51.010;6.812;2023-04-24T04:07:41;906.80;;;840.90;;
17197;SDS011;8715;51.010;6.812;2023-04-24T04:10:07;911.47;;;844.77;;
17197;SDS011;8715;51.010;6.812;2023-04-24T04:12:32;912.38;;;845.50;;
17197;SDS011;8715;51.010;6.812;2023-04-24T04:14:57;914.93;;;847.90;;
17197;SDS011;8715;51.010;6.812;2023-04-24T04:17:23;933.97;;;865.33;;
17197;SDS011;8715;51.010;6.812;2023-04-24T04:19:48;921.50;;;854.10;;
17197;SDS011;8715;51.010;6.812;2023-04-24T04:22:13;912.67;;;846.03;;
17197;SDS011;8715;51.010;6.812;2023-04-24T04:24:38;906.57;;;840.63;;
17197;SDS011;8715;51.010;6.812;2023-04-24T04:27:05;909.17;;;842.85;;
17197;SDS011;8715;51.010;6.812;2023-04-24T04:29:31;910.67;;;844.55;;
17197;SDS011;8715;51.010;6.812;2023-04-24T04:31:56;928.10;;;860.70;;
17197;SDS011;8715;51.010;6.812;2023-04-24T04:34:21;925.15;;;857.67;;
17197;SDS011;8715;51.010;6.812;2023-04-24T04:36:47;911.53;;;844.88;;
17197;SDS011;8715;51.010;6.812;2023-04-24T04:39:13;911.90;;;844.83;;
17197;SDS011;8715;51.010;6.812;2023-04-24T04:41:40;915.95;;;848.75;;
17197;SDS011;8715;51.010;6.812;2023-04-24T04:44:05;914.58;;;847.42;;
17197;SDS011;8715;51.010;6.812;2023-04-24T04:46:31;912.00;;;845.13;;
17197;SDS011;8715;51.010;6.812;2023-04-24T04:48:58;925.70;;;858.60;;
17197;SDS011;8715;51.010;6.812;2023-04-24T04:51:24;919.67;;;852.03;;
17197;SDS011;8715;51.010;6.812;2023-04-24T04:53:49;916.75;;;849.20;;
17197;SDS011;8715;51.010;6.812;2023-04-24T04:56:15;923.07;;;856.07;;
17197;SDS011;8715;51.010;6.812;2023-04-24T04:58:40;927.10;;;859.80;;
17197;SDS011;8715;51.010;6.812;2023-04-24T05:01:05;913.97;;;847.17;;
17197;SDS011;8715;51.010;6.812;2023-04-24T05:03:31;914.35;;;847.28;;
17197;SDS011;8715;51.010;6.812;2023-04-24T05:05:57;912.40;;;845.63;;
17197;SDS011;8715;51.010;6.812;2023-04-24T05:08:22;919.60;;;852.20;;
17197;SDS011;8715;51.010;6.812;2023-04-24T05:10:47;913.30;;;845.87;;
17197;SDS011;8715;51.010;6.812;2023-04-24T05:13:12;925.90;;;858.67;;
17197;SDS011;8715;51.010;6.812;2023-04-24T05:15:38;915.27;;;848.13;;
17197;SDS011;8715;51.010;6.812;2023-04-24T05:18:03;916.27;;;849.60;;
17197;SDS011;8715;51.010;6.812;2023-04-24T05:20:28;911.77;;;844.60;;
17197;SDS011;8715;51.010;6.812;2023-04-24T05:22:53;909.50;;;842.90;;
17197;SDS011;8715;51.010;6.812;2023-04-24T05:25:19;908.63;;;842.80;;
17197;SDS011;8715;51.010;6.812;2023-04-24T05:27:44;913.30;;;846.33;;
17197;SDS011;8715;51.010;6.812;2023-04-24T05:30:11;910.05;;;843.72;;
17197;SDS011;8715;51.010;6.812;2023-04-24T05:32:37;909.72;;;843.08;;
17197;SDS011;8715;51.010;6.812;2023-04-24T05:35:02;929.37;;;862.03;;
17197;SDS011;8715;51.010;6.812;2023-04-24T05:37:27;914.83;;;847.53;;
17197;SDS011;8715;51.010;6.812;2023-04-24T05:39:52;913.37;;;847.20;;
17197;SDS011;8715;51.010;6.812;2023-04-24T05:42:18;917.47;;;850.97;;
17197;SDS011;8715;51.010;6.812;2023-04-24T05:44:43;911.17;;;844.77;;
17197;SDS011;8715;51.010;6.812;2023-04-24T05:47:08;912.30;;;845.73;;
17197;SDS011;8715;51.010;6.812;2023-04-24T05:49:33;908.60;;;842.37;;
17197;SDS011;8715;51.010;6.812;2023-04-24T05:51:59;910.60;;;844.57;;
17197;SDS011;8715;51.010;6.812;2023-04-24T05:54:24;914.03;;;848.03;;
17197;SDS011;8715;51.010;6.812;2023-04-24T05:56:49;915.30;;;848.83;;
17197;SDS011;8715;51.010;6.812;2023-04-24T05:59:15;912.63;;;846.83;;
17197;SDS011;8715;51.010;6.812;2023-04-24T06:01:40;912.67;;;846.50;;
17197;SDS011;8715;51.010;6.812;2023-04-24T06:04:05;908.50;;;843.17;;
17197;SDS011;8715;51.010;6.812;2023-04-24T06:06:31;905.38;;;839.80;;
17197;SDS011;8715;51.010;6.812;2023-04-24T06:08:57;905.47;;;840.50;;
17197;SDS011;8715;51.010;6.812;2023-04-24T06:11:23;914.63;;;848.65;;
17197;SDS011;8715;51.010;6.812;2023-04-24T06:13:49;918.00;;;852.83;;
17197;SDS011;8715;51.010;6.812;2023-04-24T06:16:15;906.33;;;841.47;;
17197;SDS011;8715;51.010;6.812;2023-04-24T06:18:40;914.03;;;848.40;;
17197;SDS011;8715;51.010;6.812;2023-04-24T06:21:05;917.47;;;851.80;;
17197;SDS011;8715;51.010;6.812;2023-04-24T06:23:31;908.92;;;843.67;;
17197;SDS011;8715;51.010;6.812;2023-04-24T06:25:57;913.30;;;847.28;;
17197;SDS011;8715;51.010;6.812;2023-04-24T06:28:22;910.07;;;844.27;;
17197;SDS011;8715;51.010;6.812;2023-04-24T06:30:48;921.33;;;855.70;;
17197;SDS011;8715;51.010;6.812;2023-04-24T06:33:13;912.67;;;847.13;;
17197;SDS011;8715;51.010;6.812;2023-04-24T06:35:38;920.53;;;855.17;;
17197;SDS011;8715;51.010;6.812;2023-04-24T06:38:03;906.73;;;842.07;;
17197;SDS011;8715;51.010;6.812;2023-04-24T06:40:28;906.70;;;842.37;;
17197;SDS011;8715;51.010;6.812;2023-04-24T06:42:54;903.50;;;838.53;;
17197;SDS011;8715;51.010;6.812;2023-04-24T06:45:19;915.13;;;850.90;;
17197;SDS011;8715;51.010;6.812;2023-04-24T06:47:44;903.83;;;839.97;;
17197;SDS011;8715;51.010;6.812;2023-04-24T06:50:09;901.10;;;837.10;;
17197;SDS011;8715;51.010;6.812;2023-04-24T06:52:35;907.45;;;842.75;;
17197;SDS011;8715;51.010;6.812;2023-04-24T06:55:00;901.93;;;838.30;;
17197;SDS011;8715;51.010;6.812;2023-04-24T06:57:27;912.42;;;848.95;;
17197;SDS011;8715;51.010;6.812;2023-04-24T06:59:52;899.27;;;835.87;;
17197;SDS011;8715;51.010;6.812;2023-04-24T07:02:17;899.67;;;836.43;;
17197;SDS011;8715;51.010;6.812;2023-04-24T07:04:42;902.30;;;838.80;;
17197;SDS011;8715;51.010;6.812;2023-04-24T07:07:07;900.47;;;837.57;;
17197;SDS011;8715;51.010;6.812;2023-04-24T07:09:34;898.33;;;835.28;;
17197;SDS011;8715;51.010;6.812;2023-04-24T07:12:03;893.90;;;831.42;;
17197;SDS011;8715;51.010;6.812;2023-04-24T07:14:28;899.23;;;836.43;;
17197;SDS011;8715;51.010;6.812;2023-04-24T07:16:54;899.73;;;836.87;;
17197;SDS011;8715;51.010;6.812;2023-04-24T07:19:19;894.08;;;831.72;;
17197;SDS011;8715;51.010;6.812;2023-04-24T07:21:44;895.27;;;832.93;;
17197;SDS011;8715;51.010;6.812;2023-04-24T07:24:10;898.15;;;835.35;;
17197;SDS011;8715;51.010;6.812;2023-04-24T07:26:36;891.97;;;829.92;;
17197;SDS011;8715;51.010;6.812;2023-04-24T07:29:01;912.60;;;849.13;;
17197;SDS011;8715;51.010;6.812;2023-04-24T12:37:11;927.22;;;857.05;;
17197;SDS011;8715;51.010;6.812;2023-04-24T12:39:37;926.60;;;856.20;;
17197;SDS011;8715;51.010;6.812;2023-04-24T12:42:04;932.10;;;860.38;;
17197;SDS011;8715;51.010;6.812;2023-04-24T12:44:30;930.72;;;859.15;;
17197;SDS011;8715;51.010;6.812;2023-04-24T12:46:59;935.85;;;863.75;;
17197;SDS011;8715;51.010;6.812;2023-04-24T12:49:25;933.28;;;861.35;;
17197;SDS011;8715;51.010;6.812;2023-04-24T12:51:52;931.55;;;860.30;;
17197;SDS011;8715;51.010;6.812;2023-04-24T12:54:20;928.30;;;857.58;;
17197;SDS011;8715;51.010;6.812;2023-04-24T12:56:46;931.00;;;859.88;;
17197;SDS011;8715;51.010;6.812;2023-04-24T12:59:13;929.47;;;858.95;;
17197;SDS011;8715;51.010;6.812;2023-04-24T13:01:40;930.17;;;859.05;;
17197;SDS011;8715;51.010;6.812;2023-04-24T13:04:06;930.13;;;858.15;;
17197;SDS011;8715;51.010;6.812;2023-04-24T13:06:33;932.97;;;860.83;;
17197;SDS011;8715;51.010;6.812;2023-04-24T13:08:59;935.75;;;862.50;;
17197;SDS011;8715;51.010;6.812;2023-04-24T13:11:27;938.80;;;864.88;;
17197;SDS011;8715;51.010;6.812;2023-04-24T13:13:54;941.22;;;866.50;;
17197;SDS011;8715;51.010;6.812;2023-04-24T13:16:20;943.55;;;868.40;;
17197;SDS011;8715;51.010;6.812;2023-04-24T13:18:48;943.13;;;867.97;;
17197;SDS011;8715;51.010;6.812;2023-04-24T13:21:14;937.22;;;863.08;;
17197;SDS011;8715;51.010;6.812;2023-04-24T13:23:41;939.53;;;865.00;;
17197;SDS011;8715;51.010;6.812;2023-04-24T13:26:07;942.50;;;868.13;;
17197;SDS011;8715;51.010;6.812;2023-04-24T13:28:35;935.55;;;861.55;;
17197;SDS011;8715;51.010;6.812;2023-04-24T13:31:03;933.47;;;860.25;;
17197;SDS011;8715;51.010;6.812;2023-04-24T13:33:29;938.15;;;864.10;;
17197;SDS011;8715;51.010;6.812;2023-04-24T13:35:56;931.50;;;858.40;;
17197;SDS011;8715;51.010;6.812;2023-04-24T13:38:22;935.17;;;862.03;;
17197;SDS011;8715;51.010;6.812;2023-04-24T13:40:49;936.20;;;863.10;;
17197;SDS011;8715;51.010;6.812;2023-04-24T13:43:16;938.30;;;864.65;;
17197;SDS011;8715;51.010;6.812;2023-04-24T13:45:43;935.10;;;861.63;;
17197;SDS011;8715;51.010;6.812;2023-04-24T13:48:10;938.25;;;865.08;;
17197;SDS011;8715;51.010;6.812;2023-04-24T13:50:38;929.90;;;857.83;;
17197;SDS011;8715;51.010;6.812;2023-04-24T13:53:05;927.22;;;856.35;;
17197;SDS011;8715;51.010;6.812;2023-04-24T13:55:31;927.03;;;855.88;;
17197;SDS011;8715;51.010;6.812;2023-04-24T13:57:57;925.97;;;855.05;;
17197;SDS011;8715;51.010;6.812;2023-04-24T14:00:24;926.47;;;855.88;;
17197;SDS011;8715;51.010;6.812;2023-04-24T14:02:52;930.25;;;858.60;;
17197;SDS011;8715;51.010;6.812;2023-04-24T14:05:18;929.47;;;857.65;;
17197;SDS011;8715;51.010;6.812;2023-04-24T14:07:46;938.70;;;865.60;;
17197;SDS011;8715;51.010;6.812;2023-04-24T14:10:13;938.90;;;865.63;;
17197;SDS011;8715;51.010;6.812;2023-04-24T14:12:39;936.13;;;862.63;;
17197;SDS011;8715;51.010;6.812;2023-04-24T14:15:06;934.85;;;861.72;;
17197;SDS011;8715;51.010;6.812;2023-04-24T14:17:33;935.08;;;861.78;;
17197;SDS011;8715;51.010;6.812;2023-04-24T14:20:01;937.28;;;863.08;;
17197;SDS011;8715;51.010;6.812;2023-04-24T14:22:29;940.90;;;866.22;;
17197;SDS011;8715;51.010;6.812;2023-04-24T14:24:56;941.65;;;867.13;;
17197;SDS011;8715;51.010;6.812;2023-04-24T14:27:24;941.47;;;866.58;;
17197;SDS011;8715;51.010;6.812;2023-04-24T14:29:50;938.92;;;864.20;;
17197;SDS011;8715;51.010;6.812;2023-04-24T14:32:17;943.47;;;868.03;;
17197;SDS011;8715;51.010;6.812;2023-04-24T14:34:44;946.13;;;870.35;;
17197;SDS011;8715;51.010;6.812;2023-04-24T14:37:11;941.50;;;866.53;;
17197;SDS011;8715;51.010;6.812;2023-04-24T14:39:38;940.05;;;864.92;;
17197;SDS011;8715;51.010;6.812;2023-04-24T14:42:05;938.90;;;864.58;;
17197;SDS011;8715;51.010;6.812;2023-04-24T14:44:31;938.15;;;863.83;;
17197;SDS011;8715;51.010;6.812;2023-04-24T14:46:58;938.35;;;864.47;;
17197;SDS011;8715;51.010;6.812;2023-04-24T14:49:24;936.40;;;863.33;;
17197;SDS011;8715;51.010;6.812;2023-04-24T14:51:51;935.05;;;862.13;;
17197;SDS011;8715;51.010;6.812;2023-04-24T14:54:19;931.88;;;859.30;;
17197;SDS011;8715;51.010;6.812;2023-04-24T14:56:48;930.40;;;858.58;;
17197;SDS011;8715;51.010;6.812;2023-04-24T14:59:14;935.83;;;862.80;;
17197;SDS011;8715;51.010;6.812;2023-04-24T15:01:41;931.17;;;858.90;;
17197;SDS011;8715;51.010;6.812;2023-04-24T15:04:07;932.47;;;860.03;;
17197;SDS011;8715;51.010;6.812;2023-04-24T15:06:34;933.20;;;861.40;;
17197;SDS011;8715;51.010;6.812;2023-04-24T15:09:00;932.97;;;860.88;;
17197;SDS011;8715;51.010;6.812;2023-04-24T15:11:28;930.65;;;858.30;;
17197;SDS011;8715;51.010;6.812;2023-04-24T15:13:55;930.67;;;859.17;;
17197;SDS011;8715;51.010;6.812;2023-04-24T15:16:22;928.28;;;856.65;;
17197;SDS011;8715;51.010;6.812;2023-04-24T15:18:49;930.65;;;859.10;;
17197;SDS011;8715;51.010;6.812;2023-04-24T15:21:15;934.22;;;861.80;;
17197;SDS011;8715;51.010;6.812;2023-04-24T15:23:42;930.05;;;858.50;;
17197;SDS011;8715;51.010;6.812;2023-04-24T15:26:08;931.92;;;860.13;;
17197;SDS011;8715;51.010;6.812;2023-04-24T15:28:36;930.10;;;858.30;;
17197;SDS011;8715;51.010;6.812;2023-04-24T15:31:02;931.30;;;859.65;;
17197;SDS011;8715;51.010;6.812;2023-04-24T15:33:29;934.40;;;861.88;;
17197;SDS011;8715;51.010;6.812;2023-04-24T15:35:55;937.05;;;864.47;;
17197;SDS011;8715;51.010;6.812;2023-04-24T15:38:22;937.42;;;864.47;;
17197;SDS011;8715;51.010;6.812;2023-04-24T15:40:48;932.67;;;860.03;;
17197;SDS011;8715;51.010;6.812;2023-04-24T15:43:15;935.92;;;862.90;;
17197;SDS011;8715;51.010;6.812;2023-04-24T15:45:43;932.05;;;859.78;;
17197;SDS011;8715;51.010;6.812;2023-04-24T15:48:09;938.35;;;864.53;;
17197;SDS011;8715;51.010;6.812;2023-04-24T15:50:36;934.03;;;860.35;;
17197;SDS011;8715;51.010;6.812;2023-04-24T15:53:02;941.85;;;867.10;;
17197;SDS011;8715;51.010;6.812;2023-04-24T15:55:29;940.80;;;866.35;;
17197;SDS011;8715;51.010;6.812;2023-04-24T15:57:55;940.80;;;866.88;;
17197;SDS011;8715;51.010;6.812;2023-04-24T16:00:22;932.88;;;860.25;;
17197;SDS011;8715;51.010;6.812;2023-04-24T16:02:50;937.78;;;865.00;;
17197;SDS011;8715;51.010;6.812;2023-04-24T16:05:16;935.90;;;863.53;;
17197;SDS011;8715;51.010;6.812;2023-04-24T16:07:44;935.28;;;862.55;;
17197;SDS011;8715;51.010;6.812;2023-04-24T16:10:10;936.35;;;863.35;;
17197;SDS011;8715;51.010;6.812;2023-04-24T16:12:37;937.35;;;863.85;;
17197;SDS011;8715;51.010;6.812;2023-04-24T16:15:03;933.00;;;859.47;;
17197;SDS011;8715;51.010;6.812;2023-04-24T16:17:30;940.90;;;866.38;;
17197;SDS011;8715;51.010;6.812;2023-04-24T16:19:58;936.10;;;862.63;;
17197;SDS011;8715;51.010;6.812;2023-04-24T16:22:24;933.83;;;860.33;;
17197;SDS011;8715;51.010;6.812;2023-04-24T16:24:51;939.70;;;865.50;;
17197;SDS011;8715;51.010;6.812;2023-04-24T16:27:17;937.67;;;863.88;;
17197;SDS011;8715;51.010;6.812;2023-04-24T16:29:44;939.00;;;864.70;;
17197;SDS011;8715;51.010;6.812;2023-04-24T16:32:10;939.50;;;865.75;;
17197;SDS011;8715;51.010;6.812;2023-04-24T16:34:37;935.05;;;861.53;;
17197;SDS011;8715;51.010;6.812;2023-04-24T16:37:05;929.88;;;857.03;;
17197;SDS011;8715;51.010;6.812;2023-04-24T16:39:31;936.67;;;863.38;;
17197;SDS011;8715;51.010;6.812;2023-04-24T16:41:58;932.25;;;860.10;;
17197;SDS011;8715;51.010;6.812;2023-04-24T16:44:25;933.47;;;861.13;;
17197;SDS011;8715;51.010;6.812;2023-04-24T16:46:52;933.97;;;862.22;;
17197;SDS011;8715;51.010;6.812;2023-04-24T16:49:18;929.00;;;857.78;;
17197;SDS011;8715;51.010;6.812;2023-04-24T16:51:44;931.63;;;860.20;;
17197;SDS011;8715;51.010;6.812;2023-04-24T16:54:13;932.10;;;860.33;;
17197;SDS011;8715;51.010;6.812;2023-04-24T16:56:40;926.97;;;855.85;;
17197;SDS011;8715;51.010;6.812;2023-04-24T16:59:06;930.17;;;858.65;;
17197;SDS011;8715;51.010;6.812;2023-04-24T17:01:33;932.05;;;860.28;;
17197;SDS011;8715;51.010;6.812;2023-04-24T17:04:00;927.60;;;856.15;;
17197;SDS011;8715;51.010;6.812;2023-04-24T17:06:26;930.55;;;858.97;;
17197;SDS011;8715;51.010;6.812;2023-04-24T17:08:53;932.92;;;860.92;;
17197;SDS011;8715;51.010;6.812;2023-04-24T17:11:21;932.95;;;860.83;;
17197;SDS011;8715;51.010;6.812;2023-04-24T17:13:47;927.65;;;855.70;;
17197;SDS011;8715;51.010;6.812;2023-04-24T17:16:13;931.80;;;859.97;;
17197;SDS011;8715;51.010;6.812;2023-04-24T17:18:42;930.33;;;859.17;;
17197;SDS011;8715;51.010;6.812;2023-04-24T17:21:08;924.80;;;854.22;;
17197;SDS011;8715;51.010;6.812;2023-04-24T17:23:35;927.45;;;857.10;;
17197;SDS011;8715;51.010;6.812;2023-04-24T17:26:02;926.35;;;856.40;;
17197;SDS011;8715;51.010;6.812;2023-04-24T17:28:31;925.60;;;855.60;;
17197;SDS011;8715;51.010;6.812;2023-04-24T17:30:59;924.88;;;855.22;;
17197;SDS011;8715;51.010;6.812;2023-04-24T17:33:25;928.75;;;858.85;;
17197;SDS011;8715;51.010;6.812;2023-04-24T17:35:52;924.53;;;855.40;;
17197;SDS011;8715;51.010;6.812;2023-04-24T17:38:19;923.03;;;854.33;;
17197;SDS011;8715;51.010;6.812;2023-04-24T17:40:47;921.13;;;852.38;;
17197;SDS011;8715;51.010;6.812;2023-04-24T17:43:16;922.30;;;853.03;;
17197;SDS011;8715;51.010;6.812;2023-04-24T17:45:44;919.13;;;850.92;;
17197;SDS011;8715;51.010;6.812;2023-04-24T17:48:11;921.10;;;853.03;;
17197;SDS011;8715;51.010;6.812;2023-04-24T17:50:38;918.33;;;850.15;;
17197;SDS011;8715;51.010;6.812;2023-04-24T17:53:04;919.38;;;851.33;;
17197;SDS011;8715;51.010;6.812;2023-04-24T17:55:31;923.67;;;855.58;;
17197;SDS011;8715;51.010;6.812;2023-04-24T17:57:58;916.10;;;848.78;;
17197;SDS011;8715;51.010;6.812;2023-04-24T18:00:25;916.20;;;849.00;;
17197;SDS011;8715;51.010;6.812;2023-04-24T18:02:53;911.25;;;844.53;;
17197;SDS011;8715;51.010;6.812;2023-04-24T18:05:24;913.95;;;847.47;;
17197;SDS011;8715;51.010;6.812;2023-04-24T18:07:51;913.28;;;846.65;;
17197;SDS011;8715;51.010;6.812;2023-04-24T18:10:17;907.28;;;841.30;;
17197;SDS011;8715;51.010;6.812;2023-04-24T18:12:44;911.00;;;845.10;;
17197;SDS011;8715;51.010;6.812;2023-04-24T18:15:11;911.60;;;845.00;;
17197;SDS011;8715;51.010;6.812;2023-04-24T18:17:38;909.65;;;843.33;;
17197;SDS011;8715;51.010;6.812;2023-04-24T18:20:06;909.33;;;843.55;;
17197;SDS011;8715;51.010;6.812;2023-04-24T18:22:33;911.95;;;846.20;;
17197;SDS011;8715;51.010;6.812;2023-04-24T18:24:59;911.83;;;845.88;;
17197;SDS011;8715;51.010;6.812;2023-04-24T18:27:26;905.85;;;840.53;;
17197;SDS011;8715;51.010;6.812;2023-04-24T18:29:55;908.33;;;843.08;;
17197;SDS011;8715;51.010;6.812;2023-04-24T18:32:21;904.72;;;840.05;;
17197;SDS011;8715;51.010;6.812;2023-04-24T18:34:48;908.72;;;843.85;;
17197;SDS011;8715;51.010;6.812;2023-04-24T18:37:15;905.55;;;841.67;;
17197;SDS011;8715;51.010;6.812;2023-04-24T18:39:42;903.28;;;838.90;;
17197;SDS011;8715;51.010;6.812;2023-04-24T18:42:08;905.83;;;841.92;;
17197;SDS011;8715;51.010;6.812;2023-04-24T18:44:35;905.17;;;840.90;;
17197;SDS011;8715;51.010;6.812;2023-04-24T18:47:04;903.67;;;839.53;;
17197;SDS011;8715;51.010;6.812;2023-04-24T18:49:31;903.08;;;839.13;;
17197;SDS011;8715;51.010;6.812;2023-04-24T18:51:58;903.83;;;840.30;;
17197;SDS011;8715;51.010;6.812;2023-04-24T18:54:26;907.47;;;843.45;;
17197;SDS011;8715;51.010;6.812;2023-04-24T18:56:52;904.65;;;840.88;;
17197;SDS011;8715;51.010;6.812;2023-04-24T18:59:19;905.63;;;841.75;;
17197;SDS011;8715;51.010;6.812;2023-04-24T19:01:45;902.72;;;839.83;;
17197;SDS011;8715;51.010;6.812;2023-04-24T19:04:11;905.75;;;842.03;;
17197;SDS011;8715;51.010;6.812;2023-04-24T19:06:39;898.83;;;835.88;;